createdAt,value
2023-11-20T00:01:08.823Z,1.08
2023-11-20T00:03:35.455Z,0.90
2023-11-20T00:06:01.946Z,1.10
2023-11-20T00:08:28.398Z,0.80
2023-11-20T00:10:54.787Z,1.00
2023-11-20T00:13:21.432Z,0.82
2023-11-20T00:15:48.009Z,1.02
2023-11-20T00:18:14.553Z,0.70
2023-11-20T00:20:40.949Z,0.98
2023-11-20T00:23:07.408Z,0.95
2023-11-20T00:25:33.868Z,1.23
2023-11-20T00:28:00.416Z,1.15
2023-11-20T00:30:27.633Z,1.10
2023-11-20T00:32:54.103Z,1.00
2023-11-20T00:35:20.574Z,0.70
2023-11-20T00:37:47.207Z,0.90
2023-11-20T00:40:14.072Z,0.68
2023-11-20T00:42:40.532Z,0.80
2023-11-20T00:45:08.171Z,0.90
2023-11-20T00:47:34.682Z,0.80
2023-11-20T00:50:01.105Z,0.80
2023-11-20T00:52:27.562Z,1.08
2023-11-20T00:54:54.021Z,0.88
2023-11-20T00:57:20.584Z,0.88
2023-11-20T00:59:47.099Z,1.00
2023-11-20T01:02:13.948Z,0.90
2023-11-20T01:04:40.435Z,1.02
2023-11-20T01:07:06.902Z,1.02
2023-11-20T01:09:33.409Z,1.20
2023-11-20T01:11:59.838Z,1.10
2023-11-20T01:14:26.329Z,1.20
2023-11-20T01:16:52.716Z,0.80
2023-11-20T01:19:19.114Z,1.10
2023-11-20T01:21:46.356Z,0.90
2023-11-20T01:24:12.873Z,0.93
2023-11-20T01:26:39.292Z,1.25
2023-11-20T01:29:06.054Z,0.80
2023-11-20T01:31:32.551Z,0.80
2023-11-20T01:33:59.046Z,1.10
2023-11-20T01:36:25.512Z,0.90
2023-11-20T01:38:51.937Z,1.10
2023-11-20T01:41:18.745Z,0.88
2023-11-20T01:43:45.174Z,0.90
2023-11-20T01:46:14.294Z,0.95
2023-11-20T01:48:41.984Z,0.90
2023-11-20T01:51:09.308Z,0.95
2023-11-20T01:53:38.039Z,1.00
2023-11-20T01:56:05.007Z,0.90
2023-11-20T01:58:34.166Z,1.35
2023-11-20T02:01:01.174Z,1.05
2023-11-20T02:03:27.756Z,0.80
2023-11-20T02:05:54.256Z,0.82
2023-11-20T02:08:20.733Z,1.02
2023-11-20T02:10:48.853Z,1.00
2023-11-20T02:13:16.479Z,0.88
2023-11-20T02:15:43.243Z,0.80
2023-11-20T02:18:32.397Z,0.70
2023-11-20T02:20:58.848Z,0.85
2023-11-20T02:23:25.433Z,0.90
2023-11-20T02:26:03.793Z,0.93
2023-11-20T02:28:46.629Z,0.90
2023-11-20T02:31:13.111Z,0.75
2023-11-20T02:33:40.155Z,1.00
2023-11-20T02:36:06.810Z,0.80
2023-11-20T02:38:34.978Z,0.80
2023-11-20T02:41:01.575Z,1.00
2023-11-20T02:43:28.246Z,1.00
2023-11-20T02:45:55.569Z,0.80
2023-11-20T02:48:30.447Z,0.90
2023-11-20T02:50:56.855Z,1.00
2023-11-20T02:53:23.234Z,0.93
2023-11-20T02:55:51.566Z,1.05
2023-11-20T02:58:17.974Z,0.98
2023-11-20T03:00:44.395Z,0.93
2023-11-20T03:03:11.138Z,0.85
2023-11-20T03:05:37.604Z,1.02
2023-11-20T03:08:04.131Z,0.80
2023-11-20T03:10:30.568Z,0.73
2023-11-20T03:12:57.013Z,0.95
2023-11-20T03:15:23.467Z,0.82
2023-11-20T03:17:50.560Z,1.13
2023-11-20T03:20:17.334Z,1.00
2023-11-20T03:22:43.845Z,0.88
2023-11-20T03:25:10.641Z,1.00
2023-11-20T03:27:37.154Z,0.77
2023-11-20T03:30:04.093Z,0.88
2023-11-20T03:32:30.573Z,0.98
2023-11-20T03:34:56.992Z,0.80
2023-11-20T03:37:23.399Z,0.90
2023-11-20T03:39:49.812Z,1.10
2023-11-20T03:42:16.249Z,0.80
2023-11-20T03:44:42.634Z,0.77
2023-11-20T03:47:09.063Z,0.75
2023-11-20T03:49:35.460Z,0.82
2023-11-20T03:52:01.989Z,0.90
2023-11-20T03:54:28.742Z,0.85
2023-11-20T03:56:55.164Z,0.70
2023-11-20T03:59:21.613Z,1.23
2023-11-20T04:01:48.139Z,0.88
2023-11-20T04:04:14.694Z,0.82
2023-11-20T04:06:41.261Z,0.90
2023-11-20T04:09:07.754Z,1.30
2023-11-20T04:11:36.167Z,1.08
2023-11-20T04:14:02.641Z,0.80
2023-11-20T04:16:29.184Z,0.80
2023-11-20T04:18:55.937Z,1.00
2023-11-20T04:21:22.829Z,0.80
2023-11-20T04:23:49.781Z,0.80
2023-11-20T04:26:16.186Z,0.70
2023-11-20T04:28:42.589Z,0.60
2023-11-20T04:31:09.355Z,0.60
2023-11-20T04:33:35.826Z,0.80
2023-11-20T04:36:03.869Z,0.70
2023-11-20T04:38:31.539Z,0.80
2023-11-20T04:40:58.227Z,0.88
2023-11-20T04:43:25.337Z,0.60
2023-11-20T04:45:51.951Z,0.85
2023-11-20T04:48:18.397Z,0.68
2023-11-20T04:50:44.899Z,0.80
2023-11-20T04:53:11.301Z,0.90
2023-11-20T04:55:37.705Z,1.08
2023-11-20T04:58:04.168Z,0.77
2023-11-20T05:00:30.667Z,0.90
2023-11-20T05:02:57.099Z,1.02
2023-11-20T05:05:23.649Z,0.70
2023-11-20T05:07:51.401Z,0.80
2023-11-20T05:10:17.909Z,1.02
2023-11-20T05:12:44.596Z,0.80
2023-11-20T05:15:11.102Z,0.63
2023-11-20T05:17:37.587Z,0.90
2023-11-20T05:20:04.785Z,0.85
2023-11-20T05:22:31.196Z,0.90
2023-11-20T05:24:57.704Z,1.02
2023-11-20T05:27:25.557Z,0.70
2023-11-20T05:29:52.059Z,0.82
2023-11-20T05:32:18.473Z,1.00
2023-11-20T05:34:44.871Z,0.60
2023-11-20T05:37:11.472Z,0.82
2023-11-20T05:39:38.022Z,0.68
2023-11-20T05:42:04.650Z,1.17
2023-11-20T05:44:31.124Z,0.77
2023-11-20T05:46:57.586Z,0.80
2023-11-20T05:49:24.013Z,0.70
2023-11-20T05:51:50.503Z,0.75
2023-11-20T05:54:17.135Z,0.60
2023-11-20T05:56:43.543Z,0.70
2023-11-20T05:59:10.476Z,0.90
2023-11-20T06:01:41.720Z,0.70
2023-11-20T06:04:10.208Z,0.73
2023-11-20T06:06:37.547Z,0.60
2023-11-20T06:09:06.822Z,0.77
2023-11-20T06:11:35.214Z,0.77
2023-11-20T06:14:02.615Z,0.80
2023-11-20T06:16:29.522Z,0.60
2023-11-20T06:18:56.000Z,0.43
2023-11-20T06:21:23.107Z,0.50
2023-11-20T06:23:49.652Z,0.75
2023-11-20T06:26:16.207Z,0.55
2023-11-20T06:28:43.165Z,0.50
2023-11-20T06:31:12.724Z,0.40
2023-11-20T06:33:39.380Z,0.40
2023-11-20T06:36:07.882Z,0.40
2023-11-20T06:38:36.251Z,0.40
2023-11-20T06:41:03.945Z,0.63
2023-11-20T06:43:31.349Z,0.85
2023-11-20T06:45:58.038Z,0.63
2023-11-20T06:48:24.438Z,0.40
2023-11-20T06:50:50.854Z,0.32
2023-11-20T06:53:17.242Z,0.43
2023-11-20T06:55:43.716Z,0.60
2023-11-20T06:58:11.244Z,0.30
2023-11-20T07:00:38.167Z,0.40
2023-11-20T07:03:07.699Z,0.40
2023-11-20T07:08:08.087Z,0.32
2023-11-20T07:10:34.561Z,0.38
2023-11-20T07:13:01.063Z,0.40
2023-11-20T07:15:27.561Z,0.38
2023-11-20T07:17:54.161Z,0.45
2023-11-20T07:20:21.520Z,0.30
2023-11-20T07:22:47.990Z,0.40
2023-11-20T07:25:14.615Z,0.60
2023-11-20T07:27:41.132Z,0.30
2023-11-20T07:30:10.299Z,0.40
2023-11-20T07:32:37.488Z,0.30
2023-11-20T07:35:05.110Z,0.50
2023-11-20T07:37:32.290Z,0.60
2023-11-20T07:40:01.957Z,0.47
2023-11-20T07:42:28.621Z,0.50
2023-11-20T07:44:55.058Z,0.50
2023-11-20T07:47:21.524Z,0.40
2023-11-20T07:49:47.978Z,0.50
2023-11-20T07:52:14.423Z,0.40
2023-11-20T07:54:41.862Z,0.57
2023-11-20T07:57:11.041Z,0.47
2023-11-20T07:59:37.460Z,0.40
2023-11-20T08:02:04.053Z,0.50
2023-11-20T08:04:32.096Z,0.50
2023-11-20T08:06:59.207Z,0.57
2023-11-20T08:09:25.712Z,0.50
2023-11-20T08:11:52.107Z,0.43
2023-11-20T08:14:20.060Z,0.40
2023-11-20T08:16:48.337Z,0.43
2023-11-20T08:19:15.953Z,0.40
2023-11-20T08:21:42.664Z,0.40
2023-11-20T08:24:12.776Z,0.50
2023-11-20T08:26:39.783Z,0.50
2023-11-20T08:29:07.939Z,0.45
2023-11-20T08:31:34.603Z,0.50
2023-11-20T08:34:01.262Z,0.60
2023-11-20T08:36:27.695Z,0.40
2023-11-20T08:38:54.200Z,0.30
2023-11-20T08:41:20.837Z,0.50
2023-11-20T08:43:47.392Z,0.60
2023-11-20T08:46:15.990Z,0.40
2023-11-20T08:48:43.050Z,0.70
2023-11-20T08:51:09.820Z,0.35
2023-11-20T08:53:36.915Z,0.40
2023-11-20T08:56:03.947Z,0.30
2023-11-20T08:58:30.384Z,0.30
2023-11-20T09:00:56.823Z,0.47
2023-11-20T09:03:23.257Z,0.30
2023-11-20T09:05:49.739Z,0.38
2023-11-20T09:08:16.463Z,0.43
2023-11-20T09:10:42.947Z,0.43
2023-11-20T09:13:11.131Z,0.40
2023-11-20T09:15:38.066Z,0.40
2023-11-20T09:18:04.542Z,0.30
2023-11-20T09:20:32.111Z,0.40
2023-11-20T09:22:58.541Z,0.40
2023-11-20T09:25:25.848Z,0.50
2023-11-20T09:27:52.303Z,0.77
2023-11-20T09:30:18.875Z,0.30
2023-11-20T09:32:45.874Z,0.47
2023-11-20T09:35:12.451Z,0.50
2023-11-20T09:37:39.082Z,0.50
2023-11-20T09:40:05.967Z,0.40
2023-11-20T09:42:32.469Z,0.38
2023-11-20T09:45:02.057Z,0.40
2023-11-20T09:47:30.374Z,0.50
2023-11-20T09:49:58.188Z,0.30
2023-11-20T09:52:26.025Z,0.28
2023-11-20T09:54:56.665Z,0.50
2023-11-20T09:57:27.359Z,0.38
2023-11-20T09:59:54.722Z,0.40
2023-11-20T10:02:21.799Z,0.45
2023-11-20T10:04:54.711Z,0.40
2023-11-20T10:07:27.410Z,0.40
2023-11-20T10:09:58.599Z,0.40
2023-11-20T10:12:28.143Z,0.40
2023-11-20T10:14:54.997Z,0.50
2023-11-20T10:17:23.188Z,0.45
2023-11-20T10:19:49.637Z,0.43
2023-11-20T10:22:20.789Z,0.40
2023-11-20T10:24:48.874Z,0.60
2023-11-20T10:27:16.081Z,0.40
2023-11-20T10:29:43.676Z,0.52
2023-11-20T10:32:13.118Z,0.50
2023-11-20T10:34:39.696Z,0.40
2023-11-20T10:37:10.288Z,0.50
2023-11-20T10:39:37.260Z,0.30
2023-11-20T10:42:04.922Z,0.30
2023-11-20T10:44:36.550Z,0.60
2023-11-20T10:47:06.232Z,0.60
2023-11-20T10:49:34.976Z,0.50
2023-11-20T10:52:05.321Z,0.40
2023-11-20T10:54:44.324Z,0.50
2023-11-20T10:57:11.261Z,0.30
2023-11-20T10:59:38.540Z,0.35
2023-11-20T11:02:08.367Z,0.63
2023-11-20T11:04:38.351Z,0.22
2023-11-20T11:07:09.761Z,0.40
2023-11-20T11:09:38.709Z,0.40
2023-11-20T11:12:07.466Z,0.40
2023-11-20T11:14:34.837Z,0.52
2023-11-20T11:17:10.792Z,0.90
2023-11-20T11:19:41.718Z,0.50
2023-11-20T11:22:14.563Z,0.63
2023-11-20T11:24:43.510Z,0.60
2023-11-20T11:27:22.958Z,0.40
2023-11-20T11:29:57.781Z,0.40
2023-11-20T11:32:34.973Z,0.30
2023-11-20T11:35:36.087Z,0.50
2023-11-20T11:38:36.747Z,0.52
2023-11-20T11:41:11.718Z,0.32
2023-11-20T11:43:58.826Z,0.30
2023-11-20T11:46:27.065Z,0.50
2023-11-20T11:48:53.778Z,0.20
2023-11-20T11:51:22.423Z,0.30
2023-11-20T11:54:14.821Z,0.30
2023-11-20T11:56:50.138Z,0.28
2023-11-20T11:59:31.882Z,0.30
2023-11-20T12:04:49.977Z,0.30
2023-11-20T12:07:17.063Z,0.35
2023-11-20T12:10:12.460Z,0.40
2023-11-20T12:12:58.472Z,0.50
2023-11-20T12:15:30.946Z,0.38
2023-11-20T12:17:59.879Z,0.30
2023-11-20T12:20:27.112Z,0.50
2023-11-20T12:22:53.995Z,0.32
2023-11-20T12:25:23.566Z,0.30
2023-11-20T12:27:51.007Z,0.40
2023-11-20T12:30:17.838Z,0.30
2023-11-20T12:32:44.302Z,0.32
2023-11-20T12:35:10.807Z,0.30
2023-11-20T12:37:37.382Z,0.22
2023-11-20T12:40:05.246Z,0.50
2023-11-20T12:42:32.278Z,0.30
2023-11-20T12:44:58.783Z,0.50
2023-11-20T12:47:25.370Z,0.32
2023-11-20T12:49:52.165Z,0.50
2023-11-20T12:52:18.779Z,0.40
2023-11-20T12:54:45.334Z,0.30
2023-11-20T12:57:11.743Z,0.60
2023-11-20T12:59:38.283Z,0.50
2023-11-20T13:02:10.468Z,0.40
2023-11-20T13:04:40.355Z,0.50
2023-11-20T13:07:07.279Z,0.30
2023-11-20T13:09:39.599Z,0.40
2023-11-20T13:12:06.537Z,0.30
2023-11-20T13:14:32.959Z,0.40
2023-11-20T13:17:00.698Z,0.22
2023-11-20T13:19:37.049Z,0.25
2023-11-20T13:22:03.885Z,0.30
2023-11-20T13:24:30.547Z,0.30
2023-11-20T13:26:56.948Z,0.28
2023-11-20T13:29:23.386Z,0.40
2023-11-20T13:31:49.951Z,0.40
2023-11-20T13:34:16.662Z,0.40
2023-11-20T13:36:43.098Z,0.50
2023-11-20T13:39:14.509Z,0.50
2023-11-20T13:41:42.178Z,0.50
2023-11-20T13:44:09.744Z,0.40
2023-11-20T13:46:38.297Z,0.60
2023-11-20T13:49:05.338Z,0.82
2023-11-20T13:51:31.890Z,0.30
2023-11-20T13:53:58.435Z,0.40
2023-11-20T13:56:24.985Z,0.40
2023-11-20T13:58:51.851Z,0.50
2023-11-20T14:01:18.604Z,0.60
2023-11-20T14:03:47.211Z,0.60
2023-11-20T14:06:14.823Z,0.60
2023-11-20T14:08:41.394Z,0.50
2023-11-20T14:11:07.897Z,0.50
2023-11-20T14:13:34.498Z,0.40
2023-11-20T14:16:00.926Z,0.45
2023-11-20T14:18:31.814Z,0.50
2023-11-20T14:20:58.596Z,0.68
2023-11-20T14:23:25.236Z,1.00
2023-11-20T14:26:07.329Z,1.60
2023-11-20T14:28:38.620Z,0.88
2023-11-20T14:31:05.911Z,0.73
2023-11-20T14:33:32.482Z,0.70
2023-11-20T14:35:59.006Z,0.70
2023-11-20T14:38:25.417Z,0.73
2023-11-20T14:40:51.867Z,0.80
2023-11-20T14:43:19.367Z,0.80
2023-11-20T14:45:45.934Z,0.75
2023-11-20T14:48:12.343Z,0.70
2023-11-20T14:50:39.107Z,0.60
2023-11-20T14:53:06.844Z,0.90
2023-11-20T14:55:34.405Z,0.88
2023-11-20T14:58:00.928Z,0.93
2023-11-20T15:00:27.654Z,1.10
2023-11-20T15:02:58.572Z,0.93
2023-11-20T15:05:27.088Z,1.02
2023-11-20T15:07:53.670Z,0.80
2023-11-20T15:10:20.260Z,1.00
2023-11-20T15:12:47.539Z,0.80
2023-11-20T15:15:15.468Z,1.48
2023-11-20T15:17:44.127Z,0.90
2023-11-20T15:20:11.950Z,0.90
2023-11-20T15:22:38.709Z,0.95
2023-11-20T15:25:09.890Z,1.08
2023-11-20T15:27:37.333Z,1.05
2023-11-20T15:30:07.362Z,1.02
2023-11-20T15:32:34.044Z,1.77
2023-11-20T15:35:00.528Z,1.02
2023-11-20T15:37:27.083Z,1.30
2023-11-20T15:39:53.696Z,1.17
2023-11-20T15:42:20.238Z,1.20
2023-11-20T15:44:46.641Z,1.10
2023-11-20T15:47:13.644Z,1.20
2023-11-20T15:49:40.056Z,1.40
2023-11-20T15:52:06.488Z,1.17
2023-11-20T15:54:32.925Z,0.98
2023-11-20T15:56:59.752Z,1.00
2023-11-20T15:59:26.339Z,1.00
2023-11-20T16:01:54.050Z,1.10
2023-11-20T16:04:21.106Z,0.93
2023-11-20T16:06:49.106Z,1.02
2023-11-20T16:09:17.772Z,1.00
2023-11-20T16:11:45.142Z,1.00
2023-11-20T16:14:11.983Z,1.17
2023-11-20T16:16:39.266Z,1.35
2023-11-20T16:19:05.814Z,1.10
2023-11-20T16:21:32.277Z,1.20
2023-11-20T16:23:58.706Z,1.20
2023-11-20T16:26:25.695Z,1.27
2023-11-20T16:28:52.244Z,1.42
2023-11-20T16:31:18.783Z,1.30
2023-11-20T16:33:45.231Z,1.60
2023-11-20T16:36:11.700Z,1.60
2023-11-20T16:38:38.146Z,1.92
2023-11-20T16:41:04.845Z,1.92
2023-11-20T16:43:31.339Z,1.90
2023-11-20T16:45:58.016Z,1.95
2023-11-20T16:48:24.506Z,1.80
2023-11-20T16:50:50.883Z,2.05
2023-11-20T16:53:17.285Z,2.60
2023-11-20T16:55:43.808Z,1.58
2023-11-20T16:58:10.296Z,2.53
2023-11-20T17:00:37.259Z,1.85
2023-11-20T17:03:04.323Z,1.55
2023-11-20T17:05:32.402Z,1.73
2023-11-20T17:07:58.846Z,1.70
2023-11-20T17:10:25.285Z,2.15
2023-11-20T17:12:51.747Z,2.00
2023-11-20T17:15:18.803Z,2.10
2023-11-20T17:17:45.237Z,1.80
2023-11-20T17:20:12.737Z,1.60
2023-11-20T17:22:39.749Z,1.10
2023-11-20T17:25:07.679Z,2.45
2023-11-20T17:27:34.250Z,1.40
2023-11-20T17:30:02.180Z,1.63
2023-11-20T17:32:29.103Z,1.27
2023-11-20T17:34:55.847Z,1.35
2023-11-20T17:37:22.359Z,1.90
2023-11-20T17:39:52.218Z,1.20
2023-11-20T17:42:18.686Z,1.45
2023-11-20T17:44:45.558Z,1.58
2023-11-20T17:47:12.258Z,1.50
2023-11-20T17:49:38.969Z,1.70
2023-11-20T17:52:05.585Z,1.60
2023-11-20T17:54:34.262Z,1.63
2023-11-20T17:57:00.925Z,1.58
2023-11-20T17:59:28.547Z,1.77
2023-11-20T18:01:56.305Z,1.80
2023-11-20T18:04:23.661Z,1.80
2023-11-20T18:06:54.702Z,1.73
2023-11-20T18:09:22.379Z,1.63
2023-11-20T18:11:49.168Z,1.80
2023-11-20T18:14:15.660Z,1.60
2023-11-20T18:16:42.880Z,1.80
2023-11-20T18:19:09.393Z,2.00
2023-11-20T18:21:43.466Z,1.60
2023-11-20T18:24:16.130Z,2.28
2023-11-20T18:26:43.648Z,1.70
2023-11-20T18:29:10.080Z,1.60
2023-11-20T18:31:36.513Z,1.60
2023-11-20T18:34:03.794Z,1.60
2023-11-20T18:36:31.163Z,1.60
2023-11-20T18:38:57.749Z,2.10
2023-11-20T18:41:24.197Z,2.08
2023-11-20T18:43:50.678Z,2.17
2023-11-20T18:46:20.884Z,2.45
2023-11-20T18:48:48.350Z,2.30
2023-11-20T18:51:14.788Z,2.30
2023-11-20T18:53:42.901Z,2.65
2023-11-20T18:56:12.903Z,2.00
2023-11-20T18:58:40.621Z,2.00
2023-11-20T19:01:07.488Z,2.20
2023-11-20T19:03:34.310Z,2.08
2023-11-20T19:06:00.813Z,2.22
2023-11-20T19:08:28.401Z,2.13
2023-11-20T19:10:54.859Z,1.90
2023-11-20T19:13:21.288Z,2.15
2023-11-20T19:15:47.974Z,1.80
2023-11-20T19:18:14.599Z,1.50
2023-11-20T19:20:41.030Z,1.80
2023-11-20T19:23:08.816Z,1.80
2023-11-20T19:25:35.541Z,1.85
2023-11-20T19:28:01.972Z,1.50
2023-11-20T19:30:28.411Z,1.80
2023-11-20T19:32:54.864Z,1.70
2023-11-20T19:35:22.469Z,1.50
2023-11-20T19:37:50.190Z,1.70
2023-11-20T19:40:18.009Z,1.70
2023-11-20T19:42:44.612Z,1.38
2023-11-20T19:45:11.288Z,1.30
2023-11-20T19:47:37.948Z,1.50
2023-11-20T19:50:05.761Z,1.20
2023-11-20T19:52:32.303Z,1.30
2023-11-20T19:54:58.907Z,1.10
2023-11-20T19:57:25.349Z,1.30
2023-11-20T19:59:51.796Z,1.10
2023-11-20T20:02:18.269Z,0.90
2023-11-20T20:04:44.717Z,1.00
2023-11-20T20:07:11.188Z,1.10
2023-11-20T20:09:37.669Z,1.20
2023-11-20T20:12:04.391Z,1.10
2023-11-20T20:14:30.807Z,1.23
2023-11-20T20:17:02.980Z,1.60
2023-11-20T20:19:29.547Z,1.48
2023-11-20T20:22:00.154Z,1.17
2023-11-20T20:24:27.201Z,1.20
2023-11-20T20:26:53.639Z,1.17
2023-11-20T20:29:20.142Z,1.10
2023-11-20T20:31:46.604Z,1.10
2023-11-20T20:34:13.858Z,1.00
2023-11-20T20:36:40.352Z,1.08
2023-11-20T20:39:09.675Z,1.08
2023-11-20T20:41:36.121Z,1.17
2023-11-20T20:44:03.635Z,1.13
2023-11-20T20:46:32.197Z,1.00
2023-11-20T20:48:58.798Z,1.40
2023-11-20T20:51:25.202Z,1.00
2023-11-20T20:53:51.625Z,0.90
2023-11-20T20:56:19.324Z,0.77
2023-11-20T20:58:46.245Z,1.10
2023-11-20T21:01:12.903Z,1.00
2023-11-20T21:03:39.465Z,1.30
2023-11-20T21:06:06.243Z,1.15
2023-11-20T21:08:32.668Z,0.82
2023-11-20T21:11:02.934Z,0.90
2023-11-20T21:13:30.894Z,0.88
2023-11-20T21:15:57.555Z,1.00
2023-11-20T21:18:24.088Z,1.00
2023-11-20T21:20:50.622Z,0.90
2023-11-20T21:23:17.022Z,0.93
2023-11-20T21:25:44.398Z,1.00
2023-11-20T21:28:10.986Z,1.30
2023-11-20T21:30:37.449Z,1.10
2023-11-20T21:33:05.029Z,1.08
2023-11-20T21:35:43.647Z,1.08
2023-11-20T21:38:19.154Z,1.25
2023-11-20T21:40:45.785Z,0.95
2023-11-20T21:43:15.882Z,1.10
2023-11-20T21:45:42.616Z,0.93
2023-11-20T21:48:09.772Z,1.00
2023-11-20T21:50:36.225Z,1.20
2023-11-20T21:53:02.630Z,1.35
2023-11-20T21:55:29.686Z,1.20
2023-11-20T21:57:56.926Z,1.63
2023-11-20T22:00:27.402Z,2.00
2023-11-20T22:02:54.196Z,1.67
2023-11-20T22:05:20.917Z,1.60
2023-11-20T22:07:47.357Z,1.90
2023-11-20T22:10:14.557Z,1.30
2023-11-20T22:12:41.231Z,1.40
2023-11-20T22:15:08.960Z,1.60
2023-11-20T22:17:35.453Z,1.08
2023-11-20T22:20:05.978Z,0.93
2023-11-20T22:22:36.265Z,1.25
2023-11-20T22:25:03.118Z,0.90
2023-11-20T22:27:29.636Z,0.90
2023-11-20T22:29:56.102Z,0.80
2023-11-20T22:32:23.102Z,0.90
2023-11-20T22:35:06.265Z,1.00
2023-11-20T22:37:36.839Z,0.90
2023-11-20T22:40:08.673Z,0.80
2023-11-20T22:42:35.498Z,1.00
2023-11-20T22:45:01.977Z,0.85
2023-11-20T22:47:28.475Z,0.90
2023-11-20T22:49:54.903Z,0.95
2023-11-20T22:52:21.392Z,0.80
2023-11-20T22:54:47.829Z,0.80
2023-11-20T22:57:14.242Z,1.02
2023-11-20T22:59:40.658Z,1.00
2023-11-20T23:02:07.321Z,0.85
2023-11-20T23:04:33.795Z,1.00
2023-11-20T23:07:00.219Z,0.90
2023-11-20T23:09:27.083Z,1.10
2023-11-20T23:11:53.525Z,1.00
2023-11-20T23:14:20.106Z,1.05
2023-11-20T23:16:46.610Z,1.08
2023-11-20T23:19:13.176Z,1.25
2023-11-20T23:21:39.637Z,1.00
2023-11-20T23:24:06.898Z,0.80
2023-11-20T23:26:34.571Z,0.80
2023-11-20T23:29:01.196Z,0.85
2023-11-20T23:31:27.997Z,0.90
2023-11-20T23:33:54.534Z,0.73
2023-11-20T23:36:20.965Z,0.80
2023-11-20T23:38:47.373Z,0.73
2023-11-20T23:41:13.884Z,0.70
2023-11-20T23:43:40.556Z,0.77
2023-11-20T23:46:09.852Z,0.80
2023-11-20T23:48:36.359Z,0.80
2023-11-20T23:51:02.823Z,0.80
2023-11-20T23:53:29.219Z,0.90
2023-11-20T23:55:55.607Z,0.90
2023-11-20T23:58:22.069Z,1.13
